sensor_id;sensor_type;location;lat;lon;timestamp;P1;durP1;ratioP1;P2;durP2;ratioP2
45730;SDS011;31440;48.584;13.460;2023-04-16T00:00:37;12.13;;;8.93;;
45730;SDS011;31440;48.584;13.460;2023-04-16T00:03:41;12.20;;;8.95;;
45730;SDS011;31440;48.584;13.460;2023-04-16T00:06:46;14.93;;;9.73;;
45730;SDS011;31440;48.584;13.460;2023-04-16T00:09:51;13.15;;;8.98;;
45730;SDS011;31440;48.584;13.460;2023-04-16T00:12:55;12.57;;;8.35;;
45730;SDS011;31440;48.584;13.460;2023-04-16T00:16:00;13.25;;;9.70;;
45730;SDS011;31440;48.584;13.460;2023-04-16T00:19:04;14.15;;;9.43;;
45730;SDS011;31440;48.584;13.460;2023-04-16T00:22:09;11.80;;;9.25;;
45730;SDS011;31440;48.584;13.460;2023-04-16T00:25:14;13.25;;;9.15;;
45730;SDS011;31440;48.584;13.460;2023-04-16T00:28:18;14.77;;;10.25;;
45730;SDS011;31440;48.584;13.460;2023-04-16T00:31:27;13.35;;;8.98;;
45730;SDS011;31440;48.584;13.460;2023-04-16T00:34:33;14.90;;;10.00;;
45730;SDS011;31440;48.584;13.460;2023-04-16T00:37:37;15.00;;;9.45;;
45730;SDS011;31440;48.584;13.460;2023-04-16T00:40:42;14.43;;;9.45;;
45730;SDS011;31440;48.584;13.460;2023-04-16T00:43:46;13.18;;;9.65;;
45730;SDS011;31440;48.584;13.460;2023-04-16T00:46:51;14.35;;;9.23;;
45730;SDS011;31440;48.584;13.460;2023-04-16T00:49:57;13.18;;;9.27;;
45730;SDS011;31440;48.584;13.460;2023-04-16T00:53:01;14.35;;;8.70;;
45730;SDS011;31440;48.584;13.460;2023-04-16T00:56:07;13.68;;;9.05;;
45730;SDS011;31440;48.584;13.460;2023-04-16T00:59:13;11.15;;;8.45;;
45730;SDS011;31440;48.584;13.460;2023-04-16T01:02:18;12.65;;;8.57;;
45730;SDS011;31440;48.584;13.460;2023-04-16T01:05:23;13.40;;;9.05;;
45730;SDS011;31440;48.584;13.460;2023-04-16T01:08:27;14.25;;;9.32;;
45730;SDS011;31440;48.584;13.460;2023-04-16T01:11:32;12.30;;;9.25;;
45730;SDS011;31440;48.584;13.460;2023-04-16T01:14:37;13.85;;;9.20;;
45730;SDS011;31440;48.584;13.460;2023-04-16T01:17:43;11.77;;;8.05;;
45730;SDS011;31440;48.584;13.460;2023-04-16T01:20:49;12.43;;;8.68;;
45730;SDS011;31440;48.584;13.460;2023-04-16T01:23:54;10.98;;;8.68;;
45730;SDS011;31440;48.584;13.460;2023-04-16T01:26:59;12.52;;;9.55;;
45730;SDS011;31440;48.584;13.460;2023-04-16T01:30:04;14.00;;;10.00;;
45730;SDS011;31440;48.584;13.460;2023-04-16T01:33:21;13.93;;;9.90;;
45730;SDS011;31440;48.584;13.460;2023-04-16T01:36:25;13.75;;;9.85;;
45730;SDS011;31440;48.584;13.460;2023-04-16T01:39:31;15.13;;;10.40;;
45730;SDS011;31440;48.584;13.460;2023-04-16T01:42:36;14.45;;;10.07;;
45730;SDS011;31440;48.584;13.460;2023-04-16T01:45:41;14.77;;;10.50;;
45730;SDS011;31440;48.584;13.460;2023-04-16T01:48:48;13.48;;;10.00;;
45730;SDS011;31440;48.584;13.460;2023-04-16T01:51:52;17.38;;;11.13;;
45730;SDS011;31440;48.584;13.460;2023-04-16T01:54:57;16.80;;;10.70;;
45730;SDS011;31440;48.584;13.460;2023-04-16T01:58:02;15.40;;;10.15;;
45730;SDS011;31440;48.584;13.460;2023-04-16T02:01:10;16.25;;;10.98;;
45730;SDS011;31440;48.584;13.460;2023-04-16T02:04:16;16.77;;;10.43;;
45730;SDS011;31440;48.584;13.460;2023-04-16T02:07:21;14.10;;;10.05;;
45730;SDS011;31440;48.584;13.460;2023-04-16T02:10:25;14.00;;;10.07;;
45730;SDS011;31440;48.584;13.460;2023-04-16T02:13:30;14.50;;;9.98;;
45730;SDS011;31440;48.584;13.460;2023-04-16T02:16:35;14.98;;;10.35;;
45730;SDS011;31440;48.584;13.460;2023-04-16T02:20:15;16.60;;;10.40;;
45730;SDS011;31440;48.584;13.460;2023-04-16T02:23:29;14.65;;;9.23;;
45730;SDS011;31440;48.584;13.460;2023-04-16T02:26:35;15.70;;;10.68;;
45730;SDS011;31440;48.584;13.460;2023-04-16T02:29:45;15.68;;;10.43;;
45730;SDS011;31440;48.584;13.460;2023-04-16T02:32:53;16.23;;;10.93;;
45730;SDS011;31440;48.584;13.460;2023-04-16T02:35:58;15.85;;;11.48;;
45730;SDS011;31440;48.584;13.460;2023-04-16T02:39:03;17.42;;;11.00;;
45730;SDS011;31440;48.584;13.460;2023-04-16T02:42:07;16.67;;;11.93;;
45730;SDS011;31440;48.584;13.460;2023-04-16T02:45:13;15.07;;;10.95;;
45730;SDS011;31440;48.584;13.460;2023-04-16T02:48:17;16.30;;;11.05;;
45730;SDS011;31440;48.584;13.460;2023-04-16T02:51:22;14.95;;;10.38;;
45730;SDS011;31440;48.584;13.460;2023-04-16T02:54:26;16.02;;;10.90;;
45730;SDS011;31440;48.584;13.460;2023-04-16T02:57:31;17.60;;;11.45;;
45730;SDS011;31440;48.584;13.460;2023-04-16T03:00:36;18.55;;;12.85;;
45730;SDS011;31440;48.584;13.460;2023-04-16T03:03:41;16.73;;;10.88;;
45730;SDS011;31440;48.584;13.460;2023-04-16T03:06:46;18.40;;;11.38;;
45730;SDS011;31440;48.584;13.460;2023-04-16T03:09:51;17.88;;;11.75;;
45730;SDS011;31440;48.584;13.460;2023-04-16T03:12:55;16.48;;;11.63;;
45730;SDS011;31440;48.584;13.460;2023-04-16T03:16:01;22.83;;;12.40;;
45730;SDS011;31440;48.584;13.460;2023-04-16T03:19:05;18.23;;;11.07;;
45730;SDS011;31440;48.584;13.460;2023-04-16T03:22:10;17.50;;;11.18;;
45730;SDS011;31440;48.584;13.460;2023-04-16T03:25:15;18.33;;;11.90;;
45730;SDS011;31440;48.584;13.460;2023-04-16T03:28:19;19.48;;;12.15;;
45730;SDS011;31440;48.584;13.460;2023-04-16T03:31:24;18.45;;;12.15;;
45730;SDS011;31440;48.584;13.460;2023-04-16T03:34:31;19.67;;;13.20;;
45730;SDS011;31440;48.584;13.460;2023-04-16T03:37:36;19.05;;;13.07;;
45730;SDS011;31440;48.584;13.460;2023-04-16T03:40:41;16.95;;;11.52;;
45730;SDS011;31440;48.584;13.460;2023-04-16T03:43:46;15.98;;;10.65;;
45730;SDS011;31440;48.584;13.460;2023-04-16T03:46:52;18.90;;;11.60;;
45730;SDS011;31440;48.584;13.460;2023-04-16T03:49:57;16.50;;;11.57;;
45730;SDS011;31440;48.584;13.460;2023-04-16T03:53:03;16.08;;;10.80;;
45730;SDS011;31440;48.584;13.460;2023-04-16T03:56:09;16.52;;;11.07;;
45730;SDS011;31440;48.584;13.460;2023-04-16T03:59:14;15.43;;;10.70;;
45730;SDS011;31440;48.584;13.460;2023-04-16T04:02:20;16.20;;;10.95;;
45730;SDS011;31440;48.584;13.460;2023-04-16T04:05:25;15.20;;;10.77;;
45730;SDS011;31440;48.584;13.460;2023-04-16T04:08:30;15.70;;;9.60;;
45730;SDS011;31440;48.584;13.460;2023-04-16T04:11:35;13.32;;;9.13;;
45730;SDS011;31440;48.584;13.460;2023-04-16T04:14:40;12.85;;;9.55;;
45730;SDS011;31440;48.584;13.460;2023-04-16T04:17:44;13.27;;;9.05;;
45730;SDS011;31440;48.584;13.460;2023-04-16T04:20:49;13.27;;;8.48;;
45730;SDS011;31440;48.584;13.460;2023-04-16T04:23:57;13.52;;;8.93;;
45730;SDS011;31440;48.584;13.460;2023-04-16T04:27:02;14.63;;;10.32;;
45730;SDS011;31440;48.584;13.460;2023-04-16T04:30:07;18.40;;;11.65;;
45730;SDS011;31440;48.584;13.460;2023-04-16T04:33:13;21.83;;;10.43;;
45730;SDS011;31440;48.584;13.460;2023-04-16T04:36:18;15.30;;;9.23;;
45730;SDS011;31440;48.584;13.460;2023-04-16T04:39:24;13.70;;;9.35;;
45730;SDS011;31440;48.584;13.460;2023-04-16T04:42:28;14.32;;;9.05;;
45730;SDS011;31440;48.584;13.460;2023-04-16T04:45:33;17.17;;;10.60;;
45730;SDS011;31440;48.584;13.460;2023-04-16T04:48:38;20.05;;;12.00;;
45730;SDS011;31440;48.584;13.460;2023-04-16T04:51:43;16.95;;;10.90;;
45730;SDS011;31440;48.584;13.460;2023-04-16T04:54:47;19.52;;;10.38;;
45730;SDS011;31440;48.584;13.460;2023-04-16T04:57:52;14.95;;;9.40;;
45730;SDS011;31440;48.584;13.460;2023-04-16T05:00:57;17.48;;;11.13;;
45730;SDS011;31440;48.584;13.460;2023-04-16T05:04:01;17.63;;;11.05;;
45730;SDS011;31440;48.584;13.460;2023-04-16T05:07:06;21.08;;;12.00;;
45730;SDS011;31440;48.584;13.460;2023-04-16T05:10:11;18.08;;;12.02;;
45730;SDS011;31440;48.584;13.460;2023-04-16T05:13:15;19.73;;;12.27;;
45730;SDS011;31440;48.584;13.460;2023-04-16T05:16:20;15.23;;;9.55;;
45730;SDS011;31440;48.584;13.460;2023-04-16T05:19:25;14.15;;;9.38;;
45730;SDS011;31440;48.584;13.460;2023-04-16T05:22:29;12.30;;;8.55;;
45730;SDS011;31440;48.584;13.460;2023-04-16T05:25:34;10.27;;;6.88;;
45730;SDS011;31440;48.584;13.460;2023-04-16T05:28:38;9.90;;;6.38;;
45730;SDS011;31440;48.584;13.460;2023-04-16T05:31:43;10.15;;;6.93;;
45730;SDS011;31440;48.584;13.460;2023-04-16T05:34:48;10.77;;;7.05;;
45730;SDS011;31440;48.584;13.460;2023-04-16T05:37:52;12.38;;;7.82;;
45730;SDS011;31440;48.584;13.460;2023-04-16T05:40:57;11.82;;;7.65;;
45730;SDS011;31440;48.584;13.460;2023-04-16T05:44:02;10.90;;;8.30;;
45730;SDS011;31440;48.584;13.460;2023-04-16T05:47:07;11.00;;;7.72;;
45730;SDS011;31440;48.584;13.460;2023-04-16T05:50:12;10.93;;;7.22;;
45730;SDS011;31440;48.584;13.460;2023-04-16T05:53:17;10.70;;;7.50;;
45730;SDS011;31440;48.584;13.460;2023-04-16T05:56:22;13.32;;;9.50;;
45730;SDS011;31440;48.584;13.460;2023-04-16T05:59:26;14.35;;;8.70;;
45730;SDS011;31440;48.584;13.460;2023-04-16T06:02:32;14.27;;;8.77;;
45730;SDS011;31440;48.584;13.460;2023-04-16T06:05:37;11.10;;;8.77;;
45730;SDS011;31440;48.584;13.460;2023-04-16T06:08:42;17.50;;;10.77;;
45730;SDS011;31440;48.584;13.460;2023-04-16T06:11:46;14.55;;;10.43;;
45730;SDS011;31440;48.584;13.460;2023-04-16T06:14:52;17.67;;;11.70;;
45730;SDS011;31440;48.584;13.460;2023-04-16T06:17:56;15.82;;;11.27;;
45730;SDS011;31440;48.584;13.460;2023-04-16T06:21:04;13.10;;;9.35;;
45730;SDS011;31440;48.584;13.460;2023-04-16T06:24:09;12.48;;;8.73;;
45730;SDS011;31440;48.584;13.460;2023-04-16T06:27:13;12.82;;;9.00;;
45730;SDS011;31440;48.584;13.460;2023-04-16T06:30:18;13.73;;;10.07;;
45730;SDS011;31440;48.584;13.460;2023-04-16T06:33:23;11.93;;;9.23;;
45730;SDS011;31440;48.584;13.460;2023-04-16T06:36:27;11.07;;;8.13;;
45730;SDS011;31440;48.584;13.460;2023-04-16T06:39:32;17.15;;;8.80;;
45730;SDS011;31440;48.584;13.460;2023-04-16T06:42:37;10.82;;;8.70;;
45730;SDS011;31440;48.584;13.460;2023-04-16T06:45:41;11.02;;;7.88;;
45730;SDS011;31440;48.584;13.460;2023-04-16T06:48:46;10.48;;;7.63;;
45730;SDS011;31440;48.584;13.460;2023-04-16T06:51:51;9.13;;;7.53;;
45730;SDS011;31440;48.584;13.460;2023-04-16T06:54:55;8.40;;;6.70;;
45730;SDS011;31440;48.584;13.460;2023-04-16T06:58:00;9.73;;;7.50;;
45730;SDS011;31440;48.584;13.460;2023-04-16T07:01:04;11.48;;;7.93;;
45730;SDS011;31440;48.584;13.460;2023-04-16T07:04:10;8.30;;;6.47;;
45730;SDS011;31440;48.584;13.460;2023-04-16T07:07:15;9.00;;;7.00;;
45730;SDS011;31440;48.584;13.460;2023-04-16T07:10:20;9.77;;;7.35;;
45730;SDS011;31440;48.584;13.460;2023-04-16T07:13:24;8.82;;;7.05;;
45730;SDS011;31440;48.584;13.460;2023-04-16T07:16:29;11.82;;;7.80;;
45730;SDS011;31440;48.584;13.460;2023-04-16T07:19:34;8.38;;;7.30;;
45730;SDS011;31440;48.584;13.460;2023-04-16T07:22:39;8.25;;;6.65;;
45730;SDS011;31440;48.584;13.460;2023-04-16T07:25:43;9.15;;;7.10;;
45730;SDS011;31440;48.584;13.460;2023-04-16T07:28:49;7.95;;;6.88;;
45730;SDS011;31440;48.584;13.460;2023-04-16T07:31:54;10.25;;;7.65;;
45730;SDS011;31440;48.584;13.460;2023-04-16T07:34:58;8.35;;;7.03;;
45730;SDS011;31440;48.584;13.460;2023-04-16T07:38:03;10.02;;;7.43;;
45730;SDS011;31440;48.584;13.460;2023-04-16T07:41:09;7.60;;;6.60;;
45730;SDS011;31440;48.584;13.460;2023-04-16T07:44:14;10.10;;;6.13;;
45730;SDS011;31440;48.584;13.460;2023-04-16T07:47:18;6.78;;;5.60;;
45730;SDS011;31440;48.584;13.460;2023-04-16T07:50:23;7.55;;;5.60;;
45730;SDS011;31440;48.584;13.460;2023-04-16T07:53:28;8.70;;;6.55;;
45730;SDS011;31440;48.584;13.460;2023-04-16T07:56:33;7.18;;;5.60;;
45730;SDS011;31440;48.584;13.460;2023-04-16T07:59:38;7.32;;;5.72;;
45730;SDS011;31440;48.584;13.460;2023-04-16T08:02:42;7.38;;;5.90;;
45730;SDS011;31440;48.584;13.460;2023-04-16T08:05:47;7.03;;;5.32;;
45730;SDS011;31440;48.584;13.460;2023-04-16T08:08:52;6.50;;;5.32;;
45730;SDS011;31440;48.584;13.460;2023-04-16T08:11:58;6.35;;;4.80;;
45730;SDS011;31440;48.584;13.460;2023-04-16T08:15:04;5.38;;;4.70;;
45730;SDS011;31440;48.584;13.460;2023-04-16T08:18:09;4.18;;;3.50;;
45730;SDS011;31440;48.584;13.460;2023-04-16T08:21:18;4.28;;;3.28;;
45730;SDS011;31440;48.584;13.460;2023-04-16T08:24:23;5.35;;;3.80;;
45730;SDS011;31440;48.584;13.460;2023-04-16T08:27:27;4.93;;;3.97;;
45730;SDS011;31440;48.584;13.460;2023-04-16T08:30:32;4.78;;;4.13;;
45730;SDS011;31440;48.584;13.460;2023-04-16T08:33:37;6.40;;;4.85;;
45730;SDS011;31440;48.584;13.460;2023-04-16T08:36:43;3.75;;;3.45;;
45730;SDS011;31440;48.584;13.460;2023-04-16T08:39:49;3.83;;;3.33;;
45730;SDS011;31440;48.584;13.460;2023-04-16T08:42:54;4.20;;;3.20;;
45730;SDS011;31440;48.584;13.460;2023-04-16T08:46:02;6.60;;;5.20;;
45730;SDS011;31440;48.584;13.460;2023-04-16T08:49:09;7.15;;;5.30;;
45730;SDS011;31440;48.584;13.460;2023-04-16T08:52:21;6.78;;;5.85;;
45730;SDS011;31440;48.584;13.460;2023-04-16T08:55:41;4.25;;;3.85;;
45730;SDS011;31440;48.584;13.460;2023-04-16T08:58:50;6.03;;;4.53;;
45730;SDS011;31440;48.584;13.460;2023-04-16T09:01:58;4.30;;;3.80;;
45730;SDS011;31440;48.584;13.460;2023-04-16T09:05:04;4.07;;;3.67;;
45730;SDS011;31440;48.584;13.460;2023-04-16T09:08:11;3.47;;;3.17;;
45730;SDS011;31440;48.584;13.460;2023-04-16T09:11:18;3.88;;;3.47;;
45730;SDS011;31440;48.584;13.460;2023-04-16T09:14:23;6.57;;;4.53;;
45730;SDS011;31440;48.584;13.460;2023-04-16T09:17:28;6.50;;;5.07;;
45730;SDS011;31440;48.584;13.460;2023-04-16T09:20:33;5.20;;;4.45;;
45730;SDS011;31440;48.584;13.460;2023-04-16T09:23:37;18.60;;;5.35;;
45730;SDS011;31440;48.584;13.460;2023-04-16T09:26:43;6.05;;;5.30;;
45730;SDS011;31440;48.584;13.460;2023-04-16T09:29:48;4.93;;;4.28;;
45730;SDS011;31440;48.584;13.460;2023-04-16T09:36:26;6.97;;;5.30;;
45730;SDS011;31440;48.584;13.460;2023-04-16T09:39:31;5.47;;;4.72;;
45730;SDS011;31440;48.584;13.460;2023-04-16T09:42:36;9.38;;;4.85;;
45730;SDS011;31440;48.584;13.460;2023-04-16T09:45:47;4.85;;;4.07;;
45730;SDS011;31440;48.584;13.460;2023-04-16T09:48:56;4.82;;;3.70;;
45730;SDS011;31440;48.584;13.460;2023-04-16T09:52:01;3.95;;;3.55;;
45730;SDS011;31440;48.584;13.460;2023-04-16T09:55:06;4.78;;;3.95;;
45730;SDS011;31440;48.584;13.460;2023-04-16T09:58:11;5.60;;;4.28;;
45730;SDS011;31440;48.584;13.460;2023-04-16T10:01:16;3.22;;;2.60;;
45730;SDS011;31440;48.584;13.460;2023-04-16T10:04:21;4.72;;;3.15;;
45730;SDS011;31440;48.584;13.460;2023-04-16T10:07:32;4.82;;;3.60;;
45730;SDS011;31440;48.584;13.460;2023-04-16T10:10:38;3.70;;;3.33;;
45730;SDS011;31440;48.584;13.460;2023-04-16T10:13:43;4.43;;;3.90;;
45730;SDS011;31440;48.584;13.460;2023-04-16T10:16:48;4.38;;;3.60;;
45730;SDS011;31440;48.584;13.460;2023-04-16T10:19:54;5.10;;;3.97;;
45730;SDS011;31440;48.584;13.460;2023-04-16T10:23:00;4.05;;;3.65;;
45730;SDS011;31440;48.584;13.460;2023-04-16T10:26:05;4.32;;;3.92;;
45730;SDS011;31440;48.584;13.460;2023-04-16T10:29:10;4.40;;;3.65;;
45730;SDS011;31440;48.584;13.460;2023-04-16T10:32:16;3.58;;;3.05;;
45730;SDS011;31440;48.584;13.460;2023-04-16T10:35:24;3.80;;;3.22;;
45730;SDS011;31440;48.584;13.460;2023-04-16T10:38:29;3.70;;;3.30;;
45730;SDS011;31440;48.584;13.460;2023-04-16T10:41:34;4.63;;;3.47;;
45730;SDS011;31440;48.584;13.460;2023-04-16T10:44:40;4.95;;;3.50;;
45730;SDS011;31440;48.584;13.460;2023-04-16T10:47:48;3.40;;;2.90;;
45730;SDS011;31440;48.584;13.460;2023-04-16T10:50:54;5.22;;;4.32;;
45730;SDS011;31440;48.584;13.460;2023-04-16T10:54:18;4.60;;;3.70;;
45730;SDS011;31440;48.584;13.460;2023-04-16T10:57:24;6.22;;;3.80;;
45730;SDS011;31440;48.584;13.460;2023-04-16T11:00:38;4.93;;;3.67;;
45730;SDS011;31440;48.584;13.460;2023-04-16T11:03:52;2.80;;;2.60;;
45730;SDS011;31440;48.584;13.460;2023-04-16T11:23:48;5.55;;;2.88;;
45730;SDS011;31440;48.584;13.460;2023-04-16T11:45:15;107.53;;;100.38;;
45730;SDS011;31440;48.584;13.460;2023-04-16T11:53:32;87.72;;;83.15;;
45730;SDS011;31440;48.584;13.460;2023-04-16T11:56:37;80.15;;;75.93;;
45730;SDS011;31440;48.584;13.460;2023-04-16T11:59:45;90.05;;;85.85;;
45730;SDS011;31440;48.584;13.460;2023-04-16T12:03:15;77.10;;;72.90;;
45730;SDS011;31440;48.584;13.460;2023-04-16T12:29:12;106.45;;;99.40;;
45730;SDS011;31440;48.584;13.460;2023-04-16T12:39:40;271.27;;;255.15;;
45730;SDS011;31440;48.584;13.460;2023-04-16T12:42:45;243.07;;;228.90;;
45730;SDS011;31440;48.584;13.460;2023-04-16T12:45:49;190.73;;;177.35;;
45730;SDS011;31440;48.584;13.460;2023-04-16T12:48:54;222.65;;;209.50;;
45730;SDS011;31440;48.584;13.460;2023-04-16T12:52:01;181.88;;;172.38;;
45730;SDS011;31440;48.584;13.460;2023-04-16T12:55:06;218.55;;;205.48;;
45730;SDS011;31440;48.584;13.460;2023-04-16T12:58:11;182.35;;;172.90;;
45730;SDS011;31440;48.584;13.460;2023-04-16T13:01:17;195.70;;;185.77;;
45730;SDS011;31440;48.584;13.460;2023-04-16T13:04:22;206.30;;;196.07;;
45730;SDS011;31440;48.584;13.460;2023-04-16T13:07:29;260.30;;;244.90;;
45730;SDS011;31440;48.584;13.460;2023-04-16T13:10:35;313.10;;;295.63;;
45730;SDS011;31440;48.584;13.460;2023-04-16T13:13:39;176.27;;;167.38;;
45730;SDS011;31440;48.584;13.460;2023-04-16T13:16:44;179.15;;;169.95;;
45730;SDS011;31440;48.584;13.460;2023-04-16T13:19:49;186.73;;;177.15;;
45730;SDS011;31440;48.584;13.460;2023-04-16T13:22:53;183.13;;;173.57;;
45730;SDS011;31440;48.584;13.460;2023-04-16T13:25:58;180.93;;;171.35;;
45730;SDS011;31440;48.584;13.460;2023-04-16T13:32:10;186.63;;;177.23;;
45730;SDS011;31440;48.584;13.460;2023-04-16T13:35:16;317.05;;;297.90;;
45730;SDS011;31440;48.584;13.460;2023-04-16T13:38:21;202.90;;;192.20;;
45730;SDS011;31440;48.584;13.460;2023-04-16T13:41:26;186.27;;;176.48;;
45730;SDS011;31440;48.584;13.460;2023-04-16T13:44:31;185.73;;;175.52;;
45730;SDS011;31440;48.584;13.460;2023-04-16T13:50:41;220.52;;;207.68;;
45730;SDS011;31440;48.584;13.460;2023-04-16T13:53:45;188.85;;;178.23;;
45730;SDS011;31440;48.584;13.460;2023-04-16T13:56:50;195.20;;;184.32;;
45730;SDS011;31440;48.584;13.460;2023-04-16T13:59:54;181.27;;;171.85;;
45730;SDS011;31440;48.584;13.460;2023-04-16T14:02:59;181.77;;;172.27;;
45730;SDS011;31440;48.584;13.460;2023-04-16T14:06:04;183.10;;;173.35;;
45730;SDS011;31440;48.584;13.460;2023-04-16T14:09:10;183.85;;;174.25;;
45730;SDS011;31440;48.584;13.460;2023-04-16T14:12:15;184.20;;;174.63;;
45730;SDS011;31440;48.584;13.460;2023-04-16T14:15:20;183.27;;;173.75;;
45730;SDS011;31440;48.584;13.460;2023-04-16T14:18:24;184.73;;;175.02;;
45730;SDS011;31440;48.584;13.460;2023-04-16T14:21:29;185.18;;;175.55;;
45730;SDS011;31440;48.584;13.460;2023-04-16T14:27:39;315.60;;;297.52;;
45730;SDS011;31440;48.584;13.460;2023-04-16T14:30:44;179.90;;;170.48;;
45730;SDS011;31440;48.584;13.460;2023-04-16T14:33:48;303.58;;;286.67;;
45730;SDS011;31440;48.584;13.460;2023-04-16T14:36:53;288.48;;;272.30;;
45730;SDS011;31440;48.584;13.460;2023-04-16T14:39:58;180.48;;;171.13;;
45730;SDS011;31440;48.584;13.460;2023-04-16T14:43:03;177.20;;;168.05;;
45730;SDS011;31440;48.584;13.460;2023-04-16T14:46:07;178.70;;;169.50;;
45730;SDS011;31440;48.584;13.460;2023-04-16T14:49:12;179.77;;;170.48;;
45730;SDS011;31440;48.584;13.460;2023-04-16T14:52:18;172.23;;;163.48;;
45730;SDS011;31440;48.584;13.460;2023-04-16T14:55:22;173.10;;;164.32;;
45730;SDS011;31440;48.584;13.460;2023-04-16T14:58:27;210.60;;;199.60;;
45730;SDS011;31440;48.584;13.460;2023-04-16T15:01:32;185.32;;;175.98;;
45730;SDS011;31440;48.584;13.460;2023-04-16T15:04:37;173.40;;;164.52;;
45730;SDS011;31440;48.584;13.460;2023-04-16T15:07:42;166.68;;;158.10;;
45730;SDS011;31440;48.584;13.460;2023-04-16T15:10:46;170.80;;;162.00;;
45730;SDS011;31440;48.584;13.460;2023-04-16T15:13:51;175.20;;;166.10;;
45730;SDS011;31440;48.584;13.460;2023-04-16T15:16:55;174.77;;;164.85;;
45730;SDS011;31440;48.584;13.460;2023-04-16T15:20:00;172.48;;;163.57;;
45730;SDS011;31440;48.584;13.460;2023-04-16T15:23:04;172.18;;;163.30;;
45730;SDS011;31440;48.584;13.460;2023-04-16T15:26:09;183.00;;;173.35;;
45730;SDS011;31440;48.584;13.460;2023-04-16T15:29:13;171.00;;;162.25;;
45730;SDS011;31440;48.584;13.460;2023-04-16T15:32:18;170.90;;;161.88;;
45730;SDS011;31440;48.584;13.460;2023-04-16T15:35:23;167.93;;;159.38;;
45730;SDS011;31440;48.584;13.460;2023-04-16T15:38:28;173.40;;;164.48;;
45730;SDS011;31440;48.584;13.460;2023-04-16T15:41:34;175.05;;;166.05;;
45730;SDS011;31440;48.584;13.460;2023-04-16T15:45:00;171.10;;;162.23;;
45730;SDS011;31440;48.584;13.460;2023-04-16T15:48:05;178.25;;;168.70;;
45730;SDS011;31440;48.584;13.460;2023-04-16T15:51:09;182.02;;;172.75;;
45730;SDS011;31440;48.584;13.460;2023-04-16T15:54:14;167.07;;;158.57;;
45730;SDS011;31440;48.584;13.460;2023-04-16T15:57:19;172.10;;;163.38;;
45730;SDS011;31440;48.584;13.460;2023-04-16T16:00:23;172.85;;;163.95;;
45730;SDS011;31440;48.584;13.460;2023-04-16T16:03:28;166.15;;;157.48;;
45730;SDS011;31440;48.584;13.460;2023-04-16T16:09:41;171.00;;;162.00;;
45730;SDS011;31440;48.584;13.460;2023-04-16T16:12:45;166.32;;;157.75;;
45730;SDS011;31440;48.584;13.460;2023-04-16T16:15:51;172.50;;;163.73;;
45730;SDS011;31440;48.584;13.460;2023-04-16T16:18:55;171.60;;;162.90;;
45730;SDS011;31440;48.584;13.460;2023-04-16T16:22:00;168.65;;;159.82;;
45730;SDS011;31440;48.584;13.460;2023-04-16T16:25:05;168.95;;;160.23;;
45730;SDS011;31440;48.584;13.460;2023-04-16T16:28:10;176.85;;;167.88;;
45730;SDS011;31440;48.584;13.460;2023-04-16T16:31:15;172.02;;;163.20;;
45730;SDS011;31440;48.584;13.460;2023-04-16T16:34:21;174.32;;;165.52;;
45730;SDS011;31440;48.584;13.460;2023-04-16T16:37:27;170.00;;;161.25;;
45730;SDS011;31440;48.584;13.460;2023-04-16T16:40:32;166.23;;;157.85;;
45730;SDS011;31440;48.584;13.460;2023-04-16T16:43:36;179.82;;;170.15;;
45730;SDS011;31440;48.584;13.460;2023-04-16T16:46:41;191.68;;;181.40;;
45730;SDS011;31440;48.584;13.460;2023-04-16T16:49:46;182.18;;;172.45;;
45730;SDS011;31440;48.584;13.460;2023-04-16T16:52:54;302.83;;;285.95;;
45730;SDS011;31440;48.584;13.460;2023-04-16T16:56:01;169.02;;;160.32;;
45730;SDS011;31440;48.584;13.460;2023-04-16T16:59:06;172.18;;;163.48;;
45730;SDS011;31440;48.584;13.460;2023-04-16T17:02:12;189.55;;;179.40;;
45730;SDS011;31440;48.584;13.460;2023-04-16T17:05:19;173.65;;;164.50;;
45730;SDS011;31440;48.584;13.460;2023-04-16T17:11:30;167.48;;;159.00;;
45730;SDS011;31440;48.584;13.460;2023-04-16T17:14:34;176.25;;;167.30;;
45730;SDS011;31440;48.584;13.460;2023-04-16T17:17:39;171.48;;;162.68;;
45730;SDS011;31440;48.584;13.460;2023-04-16T17:22:32;170.43;;;161.90;;
45730;SDS011;31440;48.584;13.460;2023-04-16T17:27:17;172.07;;;163.43;;
45730;SDS011;31440;48.584;13.460;2023-04-16T17:30:22;174.13;;;165.25;;
45730;SDS011;31440;48.584;13.460;2023-04-16T17:33:28;176.18;;;166.90;;
45730;SDS011;31440;48.584;13.460;2023-04-16T17:36:34;185.63;;;176.05;;
45730;SDS011;31440;48.584;13.460;2023-04-16T17:39:40;171.73;;;163.02;;
45730;SDS011;31440;48.584;13.460;2023-04-16T17:42:44;166.23;;;157.68;;
45730;SDS011;31440;48.584;13.460;2023-04-16T17:45:49;166.23;;;157.75;;
45730;SDS011;31440;48.584;13.460;2023-04-16T17:48:53;169.95;;;161.35;;
45730;SDS011;31440;48.584;13.460;2023-04-16T17:51:58;187.75;;;177.48;;
45730;SDS011;31440;48.584;13.460;2023-04-16T17:55:03;169.80;;;161.07;;
45730;SDS011;31440;48.584;13.460;2023-04-16T17:58:08;175.98;;;166.52;;
45730;SDS011;31440;48.584;13.460;2023-04-16T18:01:13;175.05;;;166.02;;
45730;SDS011;31440;48.584;13.460;2023-04-16T18:04:18;178.60;;;169.55;;
45730;SDS011;31440;48.584;13.460;2023-04-16T18:07:23;167.52;;;159.13;;
45730;SDS011;31440;48.584;13.460;2023-04-16T18:10:27;165.60;;;157.38;;
45730;SDS011;31440;48.584;13.460;2023-04-16T18:13:34;182.75;;;173.20;;
45730;SDS011;31440;48.584;13.460;2023-04-16T18:16:39;163.90;;;155.63;;
45730;SDS011;31440;48.584;13.460;2023-04-16T18:19:44;7.40;;;7.13;;
45730;SDS011;31440;48.584;13.460;2023-04-16T18:22:49;8.93;;;8.63;;
45730;SDS011;31440;48.584;13.460;2023-04-16T18:25:53;9.30;;;8.93;;
45730;SDS011;31440;48.584;13.460;2023-04-16T18:28:58;10.10;;;9.70;;
45730;SDS011;31440;48.584;13.460;2023-04-16T18:32:03;22.60;;;21.58;;
45730;SDS011;31440;48.584;13.460;2023-04-16T18:35:09;7.75;;;7.45;;
45730;SDS011;31440;48.584;13.460;2023-04-16T18:38:14;4.85;;;4.70;;
45730;SDS011;31440;48.584;13.460;2023-04-16T18:41:19;4.85;;;4.68;;
45730;SDS011;31440;48.584;13.460;2023-04-16T18:44:24;4.35;;;4.18;;
45730;SDS011;31440;48.584;13.460;2023-04-16T18:47:29;3.50;;;3.40;;
45730;SDS011;31440;48.584;13.460;2023-04-16T18:50:34;3.92;;;3.83;;
45730;SDS011;31440;48.584;13.460;2023-04-16T18:53:38;3.43;;;3.33;;
45730;SDS011;31440;48.584;13.460;2023-04-16T18:56:45;3.42;;;3.33;;
45730;SDS011;31440;48.584;13.460;2023-04-16T18:59:49;3.57;;;3.47;;
45730;SDS011;31440;48.584;13.460;2023-04-16T19:02:54;3.05;;;2.95;;
45730;SDS011;31440;48.584;13.460;2023-04-16T19:05:59;3.42;;;3.33;;
45730;SDS011;31440;48.584;13.460;2023-04-16T19:09:04;3.17;;;3.08;;
45730;SDS011;31440;48.584;13.460;2023-04-16T19:12:09;3.70;;;3.60;;
45730;SDS011;31440;48.584;13.460;2023-04-16T19:15:14;3.22;;;3.13;;
45730;SDS011;31440;48.584;13.460;2023-04-16T19:18:19;2.97;;;2.88;;
45730;SDS011;31440;48.584;13.460;2023-04-16T19:21:23;3.05;;;2.95;;
45730;SDS011;31440;48.584;13.460;2023-04-16T19:24:29;3.25;;;3.15;;